Main page
METAR-TAF:

METAR-TAF

Airports :

Chiredzi, Zimbabwe

Buffalo Range Airport

latitude: 21-01S, longitude: 031-35E, elevation: 429 m

Current weather observation

The report was made 16 hours and 53 minutes ago, at 09:00 UTC
Wind 5 kt from the South/Southeast
Temperature 24°C
Humidity 74%
Pressure 1023 hPa
Visibility 10 km or more
Broken clouds at a height of 2000 ft

METAR: FVCZ 200900Z 15005KT 9999 BKN020 24/19 Q1023

Time: 03:53 (01:53 UTC)


TAF: missing

Weather observations and forecasts of more than 4000 airports (METAR and TAF reports).

The available stations are represented by yellow and red dots on the map.

Hover mouse over dot to see the name of the station.

Then click to see weather observations and forecasts.

To change the map : click on the green buttons with a black cross to zoom in, on the green button with a dash to zoom out, or on the green arrows for adjacent maps.


METAR-TAF: